Time;durP1;ratioP1;P1;durP2;ratioP2;P2;SDS_P1;SDS_P2;PMS_P1;PMS_P2;Temp;Humidity;BMP_temperature;BMP_pressure;BME280_temperature;BME280_humidity;BME280_pressure;Samples;Min_cycle;Max_cycle;Signal;HPM_P1;HPM_P2
2023/01/28 10:03:35;;;;;;;19.13;12.03;;;-1.20;99.90;;;;;;5135319;27;20618;-78
2023/01/28 10:06:42;;;;;;;19.60;11.80;;;-1.10;99.90;;;;;;5133310;27;20267;-76
2023/01/28 10:09:24;;;;;;;21.43;12.90;;;-0.90;99.90;;;;;;5132609;28;20411;-77
2023/01/28 10:11:56;;;;;;;17.83;11.93;;;-0.80;99.90;;;;;;5133149;28;20515;-77
2023/01/28 10:14:33;;;;;;;20.57;12.13;;;-0.70;99.90;;;;;;5131457;28;20431;-77
2023/01/28 10:17:24;;;;;;;18.20;11.97;;;-0.60;99.90;;;;;;5131893;28;20791;-77
2023/01/28 10:20:47;;;;;;;17.93;11.23;;;-0.60;99.90;;;;;;5133582;27;20291;-78
2023/01/28 10:25:02;;;;;;;18.90;11.90;;;-0.60;99.90;;;;;;5115830;27;20271;-78
2023/01/28 10:28:58;;;;;;;18.50;11.23;;;-1.00;99.90;;;;;;5122817;27;20605;-77
2023/01/28 10:33:02;;;;;;;16.20;10.67;;;-1.00;99.90;;;;;;5135005;27;20267;-78
2023/01/28 10:36:40;;;;;;;17.33;10.47;;;-0.90;99.90;;;;;;5134083;27;20267;-77
2023/01/28 10:41:46;;;;;;;12.80;9.10;;;-0.80;99.90;;;;;;5134353;27;20298;-78
2023/01/28 10:44:17;;;;;;;15.43;10.37;;;-0.80;99.90;;;;;;5131912;28;20496;-77
2023/01/28 10:46:46;;;;;;;13.90;10.10;;;-0.60;99.90;;;;;;5135526;27;20228;-78
2023/01/28 10:49:51;;;;;;;12.63;9.27;;;-0.60;99.90;;;;;;5133858;27;20268;-77
2023/01/28 10:53:55;;;;;;;14.07;9.93;;;-0.70;99.90;;;;;;5135715;27;20285;-79
2023/01/28 10:57:49;;;;;;;15.93;9.87;;;-0.60;99.90;;;;;;5137984;27;20267;-78
2023/01/28 11:01:52;;;;;;;15.80;9.90;;;-0.50;99.90;;;;;;5136224;27;20294;-78
2023/01/28 11:04:25;;;;;;;18.63;10.80;;;-0.40;99.90;;;;;;5134803;27;20171;-78
2023/01/28 11:07:15;;;;;;;14.97;9.70;;;-0.40;99.90;;;;;;5132503;28;20171;-78
2023/01/28 11:09:45;;;;;;;14.33;10.60;;;-0.30;99.90;;;;;;5134253;27;20910;-78
2023/01/28 11:12:18;;;;;;;15.27;10.10;;;0.10;99.90;;;;;;5134673;27;20686;-78
2023/01/28 11:14:59;;;;;;;14.97;10.00;;;0.40;99.90;;;;;;5135032;27;20174;-78
2023/01/28 11:17:35;;;;;;;11.77;9.17;;;0.20;99.90;;;;;;5135084;27;20474;-78
2023/01/28 11:20:17;;;;;;;14.07;9.50;;;0.10;99.90;;;;;;5133279;27;20444;-77
2023/01/28 11:22:44;;;;;;;16.90;11.63;;;0.10;99.90;;;;;;5133184;27;20441;-76
2023/01/28 11:25:25;;;;;;;15.73;10.33;;;0.10;99.90;;;;;;5131366;28;20405;-77
2023/01/28 11:27:52;;;;;;;13.93;10.00;;;-0.10;99.90;;;;;;5131671;28;20438;-77
2023/01/28 11:30:39;;;;;;;15.40;11.13;;;-0.20;99.90;;;;;;5133171;27;20400;-77
2023/01/28 11:33:17;;;;;;;17.47;10.23;;;-0.10;99.90;;;;;;5132121;28;20412;-79
2023/01/28 11:35:56;;;;;;;12.77;9.77;;;0.20;99.90;;;;;;5134307;27;20412;-79
2023/01/28 11:38:24;;;;;;;16.70;11.10;;;0.40;99.90;;;;;;5134114;27;20401;-79
2023/01/28 11:40:55;;;;;;;16.20;10.50;;;0.90;99.90;;;;;;5133565;27;21045;-78
2023/01/28 11:43:25;;;;;;;13.97;10.13;;;1.00;99.90;;;;;;5135456;27;20440;-78
2023/01/28 11:46:04;;;;;;;15.17;10.60;;;0.90;99.90;;;;;;5136254;28;20448;-79
2023/01/28 11:49:13;;;;;;;14.47;10.03;;;0.70;99.90;;;;;;5133934;27;20415;-78
2023/01/28 11:51:58;;;;;;;13.00;9.70;;;0.70;99.90;;;;;;5090244;28;20564;-79
2023/01/28 11:54:48;;;;;;;13.70;10.00;;;0.70;99.90;;;;;;5134919;28;20408;-79
2023/01/28 11:58:02;;;;;;;13.90;9.97;;;0.50;99.90;;;;;;5139333;28;20757;-79
2023/01/28 12:00:37;;;;;;;15.80;11.13;;;0.30;99.90;;;;;;5100119;28;20468;-78
2023/01/28 12:03:39;;;;;;;13.83;10.53;;;0.20;99.90;;;;;;5132944;27;20403;-78
2023/01/28 12:06:17;;;;;;;14.03;9.40;;;0.30;99.90;;;;;;5132142;28;20446;-79
2023/01/28 12:09:09;;;;;;;13.83;10.10;;;0.40;99.90;;;;;;5132871;27;20483;-79
2023/01/28 12:14:56;;;;;;;14.13;9.70;;;0.10;99.90;;;;;;5119906;28;20452;-79
2023/01/28 12:17:37;;;;;;;14.37;9.90;;;0.00;99.90;;;;;;5099494;28;20421;-81
2023/01/28 12:20:18;;;;;;;15.60;10.63;;;0.00;99.90;;;;;;5120292;28;20980;-79
2023/01/28 12:22:57;;;;;;;14.23;9.70;;;-0.10;99.90;;;;;;5121019;28;20803;-80
2023/01/28 12:25:48;;;;;;;15.77;11.87;;;0.00;99.90;;;;;;5119605;28;20506;-78
2023/01/28 12:28:52;;;;;;;17.07;11.43;;;-0.20;99.90;;;;;;5114375;28;20408;-78
2023/01/28 12:31:33;;;;;;;14.37;10.57;;;-0.30;99.90;;;;;;5118819;28;20453;-77
2023/01/28 12:34:09;;;;;;;16.33;10.60;;;-0.20;99.90;;;;;;5119047;28;20397;-78
2023/01/28 12:36:49;;;;;;;15.27;11.00;;;0.00;99.90;;;;;;5117782;28;20416;-78
2023/01/28 12:39:24;;;;;;;14.87;11.30;;;0.20;99.90;;;;;;5119003;28;20397;-79
2023/01/28 12:42:08;;;;;;;17.07;12.27;;;0.20;99.90;;;;;;5117135;28;20493;-79
2023/01/28 12:44:41;;;;;;;18.30;12.33;;;0.20;99.90;;;;;;5118117;28;20496;-77
2023/01/28 12:47:12;;;;;;;19.67;12.83;;;0.40;99.90;;;;;;5118117;28;20381;-77
2023/01/28 12:49:52;;;;;;;18.40;13.33;;;1.00;99.90;;;;;;5116466;28;20398;-78
2023/01/28 12:52:34;;;;;;;17.27;11.70;;;1.40;99.90;;;;;;5118157;28;20409;-78
2023/01/28 12:55:21;;;;;;;16.30;11.53;;;1.20;99.90;;;;;;5117588;28;20406;-78
2023/01/28 12:57:48;;;;;;;16.13;11.83;;;0.80;99.90;;;;;;5118181;28;20802;-78
2023/01/28 13:00:35;;;;;;;17.93;11.83;;;0.60;99.90;;;;;;5117648;28;20453;-77
2023/01/28 13:03:07;;;;;;;16.63;11.40;;;0.50;99.90;;;;;;5117691;28;20751;-78
2023/01/28 13:05:39;;;;;;;19.17;11.97;;;0.50;99.90;;;;;;5118008;28;20758;-78
2023/01/28 13:08:34;;;;;;;29.07;16.03;;;0.40;99.90;;;;;;5116577;28;20500;-78
2023/01/28 13:11:02;;;;;;;29.07;16.30;;;0.30;99.90;;;;;;5103791;28;20475;-79
2023/01/28 13:13:38;;;;;;;16.97;11.07;;;0.10;99.90;;;;;;5119058;27;20757;-79
2023/01/28 13:16:07;;;;;;;16.47;11.00;;;-0.10;99.90;;;;;;5118457;28;20400;-79
2023/01/28 13:18:38;;;;;;;18.03;12.17;;;-0.20;99.90;;;;;;5118739;28;20405;-79
2023/01/28 13:21:11;;;;;;;16.00;10.37;;;-0.30;99.90;;;;;;5117786;28;20484;-78
2023/01/28 13:23:46;;;;;;;16.87;10.53;;;-0.30;99.90;;;;;;5117350;28;20837;-79
2023/01/28 13:26:29;;;;;;;15.77;10.23;;;-0.20;99.90;;;;;;5116325;28;20417;-79
2023/01/28 13:29:26;;;;;;;16.67;12.67;;;-0.20;99.90;;;;;;5125907;28;20945;-79
2023/01/28 13:31:54;;;;;;;19.03;12.33;;;0.00;99.90;;;;;;5121481;28;20433;-80
2023/01/28 13:34:42;;;;;;;21.10;13.17;;;0.20;99.90;;;;;;5117677;28;20882;-79
2023/01/28 13:37:29;;;;;;;23.97;14.87;;;-0.10;99.90;;;;;;5116839;28;20408;-78
2023/01/28 13:40:03;;;;;;;20.83;14.20;;;-0.20;99.90;;;;;;5116317;28;20441;-78
2023/01/28 13:42:30;;;;;;;21.40;15.67;;;-0.30;99.90;;;;;;5118438;28;20417;-78
2023/01/28 13:45:13;;;;;;;15.80;10.87;;;-0.30;99.90;;;;;;5115295;28;20410;-78
2023/01/28 13:47:44;;;;;;;20.77;12.80;;;-0.30;99.90;;;;;;5114817;28;20409;-78
2023/01/28 13:50:18;;;;;;;16.90;11.47;;;-0.20;99.90;;;;;;5117713;28;20414;-79
2023/01/28 13:52:52;;;;;;;22.00;12.63;;;-0.30;99.90;;;;;;5117904;28;20429;-79
2023/01/28 13:55:24;;;;;;;16.87;11.67;;;-0.10;99.90;;;;;;5117587;28;20401;-79
2023/01/28 13:58:04;;;;;;;15.33;10.40;;;0.00;99.90;;;;;;5117427;28;20939;-80
2023/01/28 14:00:40;;;;;;;18.70;11.90;;;-0.10;99.90;;;;;;5117186;28;20488;-79
2023/01/28 14:03:39;;;;;;;15.63;10.30;;;-0.20;99.90;;;;;;5117755;28;20405;-79
2023/01/28 14:06:29;;;;;;;17.13;11.40;;;-0.20;99.90;;;;;;5116212;28;20458;-79
2023/01/28 14:09:32;;;;;;;14.87;10.73;;;-0.30;99.90;;;;;;5115866;28;20409;-79
2023/01/28 14:12:13;;;;;;;14.73;10.27;;;-0.50;99.90;;;;;;5116988;28;20784;-79
2023/01/28 14:15:03;;;;;;;16.43;10.43;;;-0.50;99.90;;;;;;5116070;28;20504;-77
2023/01/28 14:18:11;;;;;;;16.37;10.83;;;-0.50;99.90;;;;;;5116368;28;20401;-79
2023/01/28 14:20:43;;;;;;;17.40;12.17;;;-0.50;99.90;;;;;;5073641;28;20557;-78
2023/01/28 14:23:23;;;;;;;19.33;11.63;;;-0.50;99.90;;;;;;5111529;28;20417;-78
2023/01/28 14:26:04;;;;;;;17.90;11.57;;;-0.50;99.90;;;;;;5115942;28;20402;-77
2023/01/28 14:36:17;;;;;;;19.03;12.30;;;-0.70;99.90;;;;;;5133968;27;20740;-78
